sensor_id;sensor_type;location;lat;lon;timestamp;P1;durP1;ratioP1;P2;durP2;ratioP2
41875;SDS011;27555;50.808;4.402;2023-03-19T00:01:56;5.78;;;2.63;;
41875;SDS011;27555;50.808;4.402;2023-03-19T00:04:23;6.35;;;3.20;;
41875;SDS011;27555;50.808;4.402;2023-03-19T00:06:49;5.20;;;2.20;;
41875;SDS011;27555;50.808;4.402;2023-03-19T00:09:15;2.58;;;1.83;;
41875;SDS011;27555;50.808;4.402;2023-03-19T00:11:42;4.03;;;1.48;;
41875;SDS011;27555;50.808;4.402;2023-03-19T00:14:08;11.13;;;6.68;;
41875;SDS011;27555;50.808;4.402;2023-03-19T00:16:33;3.28;;;1.85;;
41875;SDS011;27555;50.808;4.402;2023-03-19T00:18:59;6.93;;;2.85;;
41875;SDS011;27555;50.808;4.402;2023-03-19T00:21:25;5.88;;;2.17;;
41875;SDS011;27555;50.808;4.402;2023-03-19T00:23:51;6.22;;;2.28;;
41875;SDS011;27555;50.808;4.402;2023-03-19T00:26:16;3.70;;;1.60;;
41875;SDS011;27555;50.808;4.402;2023-03-19T00:28:42;4.07;;;1.63;;
41875;SDS011;27555;50.808;4.402;2023-03-19T00:33:35;2.20;;;1.63;;
41875;SDS011;27555;50.808;4.402;2023-03-19T00:36:01;3.22;;;1.67;;
41875;SDS011;27555;50.808;4.402;2023-03-19T00:38:27;2.95;;;1.50;;
41875;SDS011;27555;50.808;4.402;2023-03-19T00:40:53;2.88;;;1.60;;
41875;SDS011;27555;50.808;4.402;2023-03-19T00:43:19;5.15;;;2.10;;
41875;SDS011;27555;50.808;4.402;2023-03-19T00:45:44;5.20;;;1.92;;
41875;SDS011;27555;50.808;4.402;2023-03-19T00:48:10;2.65;;;1.50;;
41875;SDS011;27555;50.808;4.402;2023-03-19T00:50:36;3.65;;;1.88;;
41875;SDS011;27555;50.808;4.402;2023-03-19T00:53:02;4.50;;;2.30;;
41875;SDS011;27555;50.808;4.402;2023-03-19T00:55:27;3.05;;;1.65;;
41875;SDS011;27555;50.808;4.402;2023-03-19T00:57:53;8.93;;;2.70;;
41875;SDS011;27555;50.808;4.402;2023-03-19T01:00:18;7.38;;;2.50;;
41875;SDS011;27555;50.808;4.402;2023-03-19T01:02:44;6.05;;;2.58;;
41875;SDS011;27555;50.808;4.402;2023-03-19T01:05:11;2.50;;;1.70;;
41875;SDS011;27555;50.808;4.402;2023-03-19T01:07:37;4.55;;;1.70;;
41875;SDS011;27555;50.808;4.402;2023-03-19T01:10:03;15.02;;;8.40;;
41875;SDS011;27555;50.808;4.402;2023-03-19T01:12:28;6.13;;;1.77;;
41875;SDS011;27555;50.808;4.402;2023-03-19T01:14:54;7.82;;;3.63;;
41875;SDS011;27555;50.808;4.402;2023-03-19T01:17:20;19.77;;;9.57;;
41875;SDS011;27555;50.808;4.402;2023-03-19T01:19:45;5.50;;;2.15;;
41875;SDS011;27555;50.808;4.402;2023-03-19T01:22:12;4.00;;;2.03;;
41875;SDS011;27555;50.808;4.402;2023-03-19T01:24:40;3.38;;;2.28;;
41875;SDS011;27555;50.808;4.402;2023-03-19T01:27:05;7.85;;;2.42;;
41875;SDS011;27555;50.808;4.402;2023-03-19T01:29:31;4.30;;;2.10;;
41875;SDS011;27555;50.808;4.402;2023-03-19T01:31:56;3.70;;;2.30;;
41875;SDS011;27555;50.808;4.402;2023-03-19T01:34:22;8.48;;;2.65;;
41875;SDS011;27555;50.808;4.402;2023-03-19T01:36:48;2.90;;;1.90;;
41875;SDS011;27555;50.808;4.402;2023-03-19T01:39:14;4.32;;;2.47;;
41875;SDS011;27555;50.808;4.402;2023-03-19T01:41:39;6.90;;;2.13;;
41875;SDS011;27555;50.808;4.402;2023-03-19T01:44:21;8.25;;;2.55;;
41875;SDS011;27555;50.808;4.402;2023-03-19T01:46:49;5.40;;;3.15;;
41875;SDS011;27555;50.808;4.402;2023-03-19T01:49:14;4.30;;;2.63;;
41875;SDS011;27555;50.808;4.402;2023-03-19T01:51:43;4.82;;;2.97;;
41875;SDS011;27555;50.808;4.402;2023-03-19T01:54:12;4.75;;;3.47;;
41875;SDS011;27555;50.808;4.402;2023-03-19T01:56:43;5.45;;;3.20;;
41875;SDS011;27555;50.808;4.402;2023-03-19T01:59:14;5.45;;;3.38;;
41875;SDS011;27555;50.808;4.402;2023-03-19T02:01:46;9.70;;;3.03;;
41875;SDS011;27555;50.808;4.402;2023-03-19T02:04:18;7.28;;;3.58;;
41875;SDS011;27555;50.808;4.402;2023-03-19T02:06:44;5.25;;;3.03;;
41875;SDS011;27555;50.808;4.402;2023-03-19T02:09:11;5.43;;;3.40;;
41875;SDS011;27555;50.808;4.402;2023-03-19T02:11:38;6.38;;;4.07;;
41875;SDS011;27555;50.808;4.402;2023-03-19T02:14:05;7.05;;;3.90;;
41875;SDS011;27555;50.808;4.402;2023-03-19T02:16:31;9.10;;;4.07;;
41875;SDS011;27555;50.808;4.402;2023-03-19T02:18:57;8.57;;;4.80;;
41875;SDS011;27555;50.808;4.402;2023-03-19T02:21:23;7.50;;;4.53;;
41875;SDS011;27555;50.808;4.402;2023-03-19T02:23:52;7.28;;;4.93;;
41875;SDS011;27555;50.808;4.402;2023-03-19T02:26:26;9.73;;;5.65;;
41875;SDS011;27555;50.808;4.402;2023-03-19T02:28:54;6.63;;;5.05;;
41875;SDS011;27555;50.808;4.402;2023-03-19T02:31:20;9.20;;;5.50;;
41875;SDS011;27555;50.808;4.402;2023-03-19T02:34:00;13.75;;;6.70;;
41875;SDS011;27555;50.808;4.402;2023-03-19T02:37:01;10.73;;;7.35;;
41875;SDS011;27555;50.808;4.402;2023-03-19T02:39:23;10.30;;;6.75;;
41875;SDS011;27555;50.808;4.402;2023-03-19T02:41:56;9.07;;;6.72;;
41875;SDS011;27555;50.808;4.402;2023-03-19T02:44:23;10.18;;;6.93;;
41875;SDS011;27555;50.808;4.402;2023-03-19T02:46:49;11.77;;;7.10;;
41875;SDS011;27555;50.808;4.402;2023-03-19T02:49:14;10.88;;;6.85;;
41875;SDS011;27555;50.808;4.402;2023-03-19T02:51:40;10.95;;;7.03;;
41875;SDS011;27555;50.808;4.402;2023-03-19T02:54:06;12.20;;;7.88;;
41875;SDS011;27555;50.808;4.402;2023-03-19T02:56:32;12.75;;;7.10;;
41875;SDS011;27555;50.808;4.402;2023-03-19T02:58:58;9.25;;;7.50;;
41875;SDS011;27555;50.808;4.402;2023-03-19T03:01:23;9.30;;;6.93;;
41875;SDS011;27555;50.808;4.402;2023-03-19T03:03:49;12.50;;;8.23;;
41875;SDS011;27555;50.808;4.402;2023-03-19T03:06:15;11.30;;;8.02;;
41875;SDS011;27555;50.808;4.402;2023-03-19T03:08:42;9.18;;;7.35;;
41875;SDS011;27555;50.808;4.402;2023-03-19T03:11:08;11.85;;;8.15;;
41875;SDS011;27555;50.808;4.402;2023-03-19T03:13:34;12.20;;;7.97;;
41875;SDS011;27555;50.808;4.402;2023-03-19T03:16:00;11.68;;;7.68;;
41875;SDS011;27555;50.808;4.402;2023-03-19T03:18:26;14.80;;;7.95;;
41875;SDS011;27555;50.808;4.402;2023-03-19T03:20:51;13.52;;;8.35;;
41875;SDS011;27555;50.808;4.402;2023-03-19T03:23:17;12.70;;;8.27;;
41875;SDS011;27555;50.808;4.402;2023-03-19T03:25:43;12.70;;;8.65;;
41875;SDS011;27555;50.808;4.402;2023-03-19T03:28:12;13.20;;;7.70;;
41875;SDS011;27555;50.808;4.402;2023-03-19T03:30:38;12.77;;;7.88;;
41875;SDS011;27555;50.808;4.402;2023-03-19T03:33:03;12.80;;;8.48;;
41875;SDS011;27555;50.808;4.402;2023-03-19T03:35:29;17.65;;;8.93;;
41875;SDS011;27555;50.808;4.402;2023-03-19T03:37:55;12.50;;;8.82;;
41875;SDS011;27555;50.808;4.402;2023-03-19T03:40:21;11.88;;;9.30;;
41875;SDS011;27555;50.808;4.402;2023-03-19T03:42:47;13.50;;;9.13;;
41875;SDS011;27555;50.808;4.402;2023-03-19T03:45:14;14.45;;;9.82;;
41875;SDS011;27555;50.808;4.402;2023-03-19T03:47:39;11.52;;;9.02;;
41875;SDS011;27555;50.808;4.402;2023-03-19T03:50:06;13.13;;;8.95;;
41875;SDS011;27555;50.808;4.402;2023-03-19T03:52:34;13.65;;;9.25;;
41875;SDS011;27555;50.808;4.402;2023-03-19T03:55:00;19.55;;;9.93;;
41875;SDS011;27555;50.808;4.402;2023-03-19T03:57:27;13.45;;;8.75;;
41875;SDS011;27555;50.808;4.402;2023-03-19T03:59:53;14.85;;;9.82;;
41875;SDS011;27555;50.808;4.402;2023-03-19T04:02:18;14.68;;;10.48;;
41875;SDS011;27555;50.808;4.402;2023-03-19T04:04:44;17.95;;;9.40;;
41875;SDS011;27555;50.808;4.402;2023-03-19T04:07:10;17.70;;;10.38;;
41875;SDS011;27555;50.808;4.402;2023-03-19T04:09:36;11.75;;;8.50;;
41875;SDS011;27555;50.808;4.402;2023-03-19T04:12:02;15.32;;;9.55;;
41875;SDS011;27555;50.808;4.402;2023-03-19T04:14:28;13.48;;;9.43;;
41875;SDS011;27555;50.808;4.402;2023-03-19T04:16:53;12.38;;;9.32;;
41875;SDS011;27555;50.808;4.402;2023-03-19T04:19:19;15.98;;;9.05;;
41875;SDS011;27555;50.808;4.402;2023-03-19T04:21:45;18.00;;;9.43;;
41875;SDS011;27555;50.808;4.402;2023-03-19T04:24:10;16.50;;;9.80;;
41875;SDS011;27555;50.808;4.402;2023-03-19T04:26:36;12.05;;;9.15;;
41875;SDS011;27555;50.808;4.402;2023-03-19T04:29:03;14.18;;;9.65;;
41875;SDS011;27555;50.808;4.402;2023-03-19T04:31:29;12.05;;;9.45;;
41875;SDS011;27555;50.808;4.402;2023-03-19T04:33:54;12.90;;;9.48;;
41875;SDS011;27555;50.808;4.402;2023-03-19T04:36:20;12.00;;;9.27;;
41875;SDS011;27555;50.808;4.402;2023-03-19T04:38:46;12.20;;;9.30;;
41875;SDS011;27555;50.808;4.402;2023-03-19T04:41:12;15.63;;;9.25;;
41875;SDS011;27555;50.808;4.402;2023-03-19T04:43:39;13.13;;;8.85;;
41875;SDS011;27555;50.808;4.402;2023-03-19T04:46:05;12.98;;;9.35;;
41875;SDS011;27555;50.808;4.402;2023-03-19T04:48:32;12.80;;;9.48;;
41875;SDS011;27555;50.808;4.402;2023-03-19T04:51:00;16.95;;;9.95;;
41875;SDS011;27555;50.808;4.402;2023-03-19T04:53:27;11.52;;;9.15;;
41875;SDS011;27555;50.808;4.402;2023-03-19T04:55:52;12.80;;;9.20;;
41875;SDS011;27555;50.808;4.402;2023-03-19T04:58:18;16.38;;;9.32;;
41875;SDS011;27555;50.808;4.402;2023-03-19T05:00:44;18.92;;;9.27;;
41875;SDS011;27555;50.808;4.402;2023-03-19T05:03:11;14.05;;;9.35;;
41875;SDS011;27555;50.808;4.402;2023-03-19T05:05:38;12.68;;;9.20;;
41875;SDS011;27555;50.808;4.402;2023-03-19T05:08:03;13.23;;;9.65;;
41875;SDS011;27555;50.808;4.402;2023-03-19T05:10:29;12.50;;;9.32;;
41875;SDS011;27555;50.808;4.402;2023-03-19T05:12:56;14.25;;;9.77;;
41875;SDS011;27555;50.808;4.402;2023-03-19T05:15:21;14.68;;;9.20;;
41875;SDS011;27555;50.808;4.402;2023-03-19T05:17:47;12.68;;;8.18;;
41875;SDS011;27555;50.808;4.402;2023-03-19T05:20:13;16.20;;;8.48;;
41875;SDS011;27555;50.808;4.402;2023-03-19T05:22:39;11.30;;;7.15;;
41875;SDS011;27555;50.808;4.402;2023-03-19T05:25:05;11.13;;;6.70;;
41875;SDS011;27555;50.808;4.402;2023-03-19T05:27:31;14.75;;;7.10;;
41875;SDS011;27555;50.808;4.402;2023-03-19T05:29:57;10.48;;;6.97;;
41875;SDS011;27555;50.808;4.402;2023-03-19T05:32:22;12.90;;;7.60;;
41875;SDS011;27555;50.808;4.402;2023-03-19T05:34:49;13.70;;;7.15;;
41875;SDS011;27555;50.808;4.402;2023-03-19T05:37:14;13.57;;;6.90;;
41875;SDS011;27555;50.808;4.402;2023-03-19T05:39:41;11.15;;;6.57;;
41875;SDS011;27555;50.808;4.402;2023-03-19T05:42:06;10.48;;;7.57;;
41875;SDS011;27555;50.808;4.402;2023-03-19T05:44:32;11.77;;;6.20;;
41875;SDS011;27555;50.808;4.402;2023-03-19T05:46:58;10.85;;;6.63;;
41875;SDS011;27555;50.808;4.402;2023-03-19T05:49:23;13.15;;;6.55;;
41875;SDS011;27555;50.808;4.402;2023-03-19T05:51:50;12.45;;;6.45;;
41875;SDS011;27555;50.808;4.402;2023-03-19T05:54:15;14.52;;;6.43;;
41875;SDS011;27555;50.808;4.402;2023-03-19T05:56:41;13.13;;;6.32;;
41875;SDS011;27555;50.808;4.402;2023-03-19T05:59:07;13.80;;;6.05;;
41875;SDS011;27555;50.808;4.402;2023-03-19T06:01:32;11.07;;;5.65;;
41875;SDS011;27555;50.808;4.402;2023-03-19T06:03:58;7.93;;;4.35;;
41875;SDS011;27555;50.808;4.402;2023-03-19T06:06:23;16.48;;;5.65;;
41875;SDS011;27555;50.808;4.402;2023-03-19T06:08:49;7.80;;;4.38;;
41875;SDS011;27555;50.808;4.402;2023-03-19T06:11:15;16.27;;;5.10;;
41875;SDS011;27555;50.808;4.402;2023-03-19T06:13:40;13.07;;;4.95;;
41875;SDS011;27555;50.808;4.402;2023-03-19T06:16:07;8.35;;;4.28;;
41875;SDS011;27555;50.808;4.402;2023-03-19T06:18:33;13.60;;;5.13;;
41875;SDS011;27555;50.808;4.402;2023-03-19T06:20:59;10.45;;;4.95;;
41875;SDS011;27555;50.808;4.402;2023-03-19T06:23:25;11.00;;;4.72;;
41875;SDS011;27555;50.808;4.402;2023-03-19T06:25:50;18.10;;;5.43;;
41875;SDS011;27555;50.808;4.402;2023-03-19T06:28:16;9.07;;;4.82;;
41875;SDS011;27555;50.808;4.402;2023-03-19T06:30:41;6.78;;;4.72;;
41875;SDS011;27555;50.808;4.402;2023-03-19T06:33:07;11.95;;;5.43;;
41875;SDS011;27555;50.808;4.402;2023-03-19T06:35:33;14.38;;;5.38;;
41875;SDS011;27555;50.808;4.402;2023-03-19T06:37:58;18.65;;;6.38;;
41875;SDS011;27555;50.808;4.402;2023-03-19T06:40:24;12.80;;;5.60;;
41875;SDS011;27555;50.808;4.402;2023-03-19T06:42:50;12.65;;;5.55;;
41875;SDS011;27555;50.808;4.402;2023-03-19T06:45:16;12.15;;;4.93;;
41875;SDS011;27555;50.808;4.402;2023-03-19T06:47:43;14.82;;;5.65;;
41875;SDS011;27555;50.808;4.402;2023-03-19T06:50:12;12.82;;;5.00;;
41875;SDS011;27555;50.808;4.402;2023-03-19T06:52:39;15.57;;;5.60;;
41875;SDS011;27555;50.808;4.402;2023-03-19T06:55:05;9.60;;;5.30;;
41875;SDS011;27555;50.808;4.402;2023-03-19T06:57:32;15.40;;;5.15;;
41875;SDS011;27555;50.808;4.402;2023-03-19T06:59:57;14.07;;;5.47;;
41875;SDS011;27555;50.808;4.402;2023-03-19T07:02:23;12.65;;;6.35;;
41875;SDS011;27555;50.808;4.402;2023-03-19T07:04:49;14.63;;;5.05;;
41875;SDS011;27555;50.808;4.402;2023-03-19T07:07:15;9.70;;;5.75;;
41875;SDS011;27555;50.808;4.402;2023-03-19T07:09:40;11.55;;;5.55;;
41875;SDS011;27555;50.808;4.402;2023-03-19T07:12:06;13.02;;;5.93;;
41875;SDS011;27555;50.808;4.402;2023-03-19T07:14:32;13.80;;;4.68;;
41875;SDS011;27555;50.808;4.402;2023-03-19T07:16:57;16.58;;;5.53;;
41875;SDS011;27555;50.808;4.402;2023-03-19T07:19:23;11.35;;;5.25;;
41875;SDS011;27555;50.808;4.402;2023-03-19T07:21:48;7.80;;;4.65;;
41875;SDS011;27555;50.808;4.402;2023-03-19T07:24:14;16.35;;;4.03;;
41875;SDS011;27555;50.808;4.402;2023-03-19T07:26:40;9.07;;;4.47;;
41875;SDS011;27555;50.808;4.402;2023-03-19T07:29:06;7.80;;;3.20;;
41875;SDS011;27555;50.808;4.402;2023-03-19T07:31:32;8.10;;;3.50;;
41875;SDS011;27555;50.808;4.402;2023-03-19T07:33:58;11.57;;;3.10;;
41875;SDS011;27555;50.808;4.402;2023-03-19T07:36:23;11.40;;;4.00;;
41875;SDS011;27555;50.808;4.402;2023-03-19T07:38:49;10.27;;;3.78;;
41875;SDS011;27555;50.808;4.402;2023-03-19T07:41:14;12.80;;;3.58;;
41875;SDS011;27555;50.808;4.402;2023-03-19T07:43:40;10.45;;;3.38;;
41875;SDS011;27555;50.808;4.402;2023-03-19T07:46:06;8.60;;;3.30;;
41875;SDS011;27555;50.808;4.402;2023-03-19T07:48:31;10.57;;;3.05;;
41875;SDS011;27555;50.808;4.402;2023-03-19T07:50:57;8.07;;;3.03;;
41875;SDS011;27555;50.808;4.402;2023-03-19T07:53:23;8.98;;;3.42;;
41875;SDS011;27555;50.808;4.402;2023-03-19T07:55:48;10.35;;;3.55;;
41875;SDS011;27555;50.808;4.402;2023-03-19T07:58:14;7.72;;;3.20;;
41875;SDS011;27555;50.808;4.402;2023-03-19T08:00:41;15.52;;;4.28;;
41875;SDS011;27555;50.808;4.402;2023-03-19T08:03:06;7.97;;;2.75;;
41875;SDS011;27555;50.808;4.402;2023-03-19T08:05:32;8.75;;;3.05;;
41875;SDS011;27555;50.808;4.402;2023-03-19T08:07:57;11.63;;;3.10;;
41875;SDS011;27555;50.808;4.402;2023-03-19T08:10:23;8.88;;;2.85;;
41875;SDS011;27555;50.808;4.402;2023-03-19T08:12:49;9.77;;;3.22;;
41875;SDS011;27555;50.808;4.402;2023-03-19T08:15:14;8.20;;;2.38;;
41875;SDS011;27555;50.808;4.402;2023-03-19T08:17:40;8.35;;;2.50;;
41875;SDS011;27555;50.808;4.402;2023-03-19T08:20:07;11.88;;;2.88;;
41875;SDS011;27555;50.808;4.402;2023-03-19T08:22:35;10.10;;;2.70;;
41875;SDS011;27555;50.808;4.402;2023-03-19T08:25:01;9.70;;;2.58;;
41875;SDS011;27555;50.808;4.402;2023-03-19T08:27:27;11.85;;;2.85;;
41875;SDS011;27555;50.808;4.402;2023-03-19T08:29:55;9.77;;;2.85;;
41875;SDS011;27555;50.808;4.402;2023-03-19T08:32:21;13.98;;;2.75;;
41875;SDS011;27555;50.808;4.402;2023-03-19T08:34:47;9.60;;;2.38;;
41875;SDS011;27555;50.808;4.402;2023-03-19T08:37:12;9.10;;;2.47;;
41875;SDS011;27555;50.808;4.402;2023-03-19T08:39:38;8.95;;;2.53;;
41875;SDS011;27555;50.808;4.402;2023-03-19T08:42:04;10.18;;;2.25;;
41875;SDS011;27555;50.808;4.402;2023-03-19T08:44:30;11.82;;;2.60;;
41875;SDS011;27555;50.808;4.402;2023-03-19T08:46:55;8.95;;;2.22;;
41875;SDS011;27555;50.808;4.402;2023-03-19T08:49:21;10.60;;;2.40;;
41875;SDS011;27555;50.808;4.402;2023-03-19T08:51:46;8.98;;;2.70;;
41875;SDS011;27555;50.808;4.402;2023-03-19T08:54:12;15.77;;;2.58;;
41875;SDS011;27555;50.808;4.402;2023-03-19T08:56:38;15.07;;;3.13;;
41875;SDS011;27555;50.808;4.402;2023-03-19T08:59:04;10.80;;;2.63;;
41875;SDS011;27555;50.808;4.402;2023-03-19T09:01:30;11.38;;;2.60;;
41875;SDS011;27555;50.808;4.402;2023-03-19T09:03:56;10.90;;;2.60;;
41875;SDS011;27555;50.808;4.402;2023-03-19T09:06:21;10.82;;;2.70;;
41875;SDS011;27555;50.808;4.402;2023-03-19T09:08:47;8.88;;;2.50;;
41875;SDS011;27555;50.808;4.402;2023-03-19T09:11:12;11.50;;;3.10;;
41875;SDS011;27555;50.808;4.402;2023-03-19T09:13:40;12.95;;;3.17;;
41875;SDS011;27555;50.808;4.402;2023-03-19T09:16:06;18.60;;;4.25;;
41875;SDS011;27555;50.808;4.402;2023-03-19T09:18:32;11.07;;;3.55;;
41875;SDS011;27555;50.808;4.402;2023-03-19T09:20:58;13.05;;;3.10;;
41875;SDS011;27555;50.808;4.402;2023-03-19T09:23:25;9.75;;;3.00;;
41875;SDS011;27555;50.808;4.402;2023-03-19T09:25:51;10.25;;;2.65;;
41875;SDS011;27555;50.808;4.402;2023-03-19T09:28:16;15.05;;;3.20;;
41875;SDS011;27555;50.808;4.402;2023-03-19T09:30:46;8.63;;;3.10;;
41875;SDS011;27555;50.808;4.402;2023-03-19T09:33:13;10.68;;;3.00;;
41875;SDS011;27555;50.808;4.402;2023-03-19T09:35:40;11.60;;;3.05;;
41875;SDS011;27555;50.808;4.402;2023-03-19T09:38:06;10.70;;;3.47;;
41875;SDS011;27555;50.808;4.402;2023-03-19T09:40:38;11.23;;;3.30;;
41875;SDS011;27555;50.808;4.402;2023-03-19T09:45:54;17.65;;;4.10;;
41875;SDS011;27555;50.808;4.402;2023-03-19T09:48:39;16.00;;;4.25;;
41875;SDS011;27555;50.808;4.402;2023-03-19T09:51:17;11.63;;;2.80;;
41875;SDS011;27555;50.808;4.402;2023-03-19T09:53:56;12.95;;;3.17;;
41875;SDS011;27555;50.808;4.402;2023-03-19T09:56:28;11.82;;;3.05;;
41875;SDS011;27555;50.808;4.402;2023-03-19T09:58:55;12.95;;;3.40;;
41875;SDS011;27555;50.808;4.402;2023-03-19T10:01:25;8.20;;;2.97;;
41875;SDS011;27555;50.808;4.402;2023-03-19T10:06:34;13.73;;;3.33;;
41875;SDS011;27555;50.808;4.402;2023-03-19T10:17:40;13.68;;;3.22;;
41875;SDS011;27555;50.808;4.402;2023-03-19T10:26:17;8.80;;;2.55;;
41875;SDS011;27555;50.808;4.402;2023-03-19T10:28:45;10.63;;;2.97;;
41875;SDS011;27555;50.808;4.402;2023-03-19T10:31:28;15.60;;;3.53;;
41875;SDS011;27555;50.808;4.402;2023-03-19T10:36:56;12.75;;;3.55;;
41875;SDS011;27555;50.808;4.402;2023-03-19T10:39:27;14.23;;;3.22;;
41875;SDS011;27555;50.808;4.402;2023-03-19T10:47:38;11.60;;;3.65;;
41875;SDS011;27555;50.808;4.402;2023-03-19T10:50:06;15.52;;;3.88;;
41875;SDS011;27555;50.808;4.402;2023-03-19T10:52:38;13.93;;;3.50;;
41875;SDS011;27555;50.808;4.402;2023-03-19T10:57:43;13.57;;;2.80;;
41875;SDS011;27555;50.808;4.402;2023-03-19T11:00:14;17.02;;;3.45;;
41875;SDS011;27555;50.808;4.402;2023-03-19T11:02:49;11.13;;;2.95;;
41875;SDS011;27555;50.808;4.402;2023-03-19T11:07:58;9.48;;;3.30;;
41875;SDS011;27555;50.808;4.402;2023-03-19T11:10:30;10.00;;;3.13;;
41875;SDS011;27555;50.808;4.402;2023-03-19T11:12:59;17.70;;;3.28;;
41875;SDS011;27555;50.808;4.402;2023-03-19T11:15:41;23.50;;;7.45;;
41875;SDS011;27555;50.808;4.402;2023-03-19T11:20:41;10.70;;;4.53;;
41875;SDS011;27555;50.808;4.402;2023-03-19T11:23:15;16.48;;;4.68;;
41875;SDS011;27555;50.808;4.402;2023-03-19T11:25:51;13.80;;;4.93;;
41875;SDS011;27555;50.808;4.402;2023-03-19T11:28:19;22.45;;;5.85;;
41875;SDS011;27555;50.808;4.402;2023-03-19T11:30:49;18.58;;;9.15;;
41875;SDS011;27555;50.808;4.402;2023-03-19T11:47:29;13.10;;;5.57;;
41875;SDS011;27555;50.808;4.402;2023-03-19T11:50:21;16.15;;;5.25;;
41875;SDS011;27555;50.808;4.402;2023-03-19T11:52:56;14.05;;;4.85;;
41875;SDS011;27555;50.808;4.402;2023-03-19T12:01:05;11.50;;;4.15;;
41875;SDS011;27555;50.808;4.402;2023-03-19T12:06:55;9.93;;;4.53;;
41875;SDS011;27555;50.808;4.402;2023-03-19T12:15:17;8.60;;;5.22;;
41875;SDS011;27555;50.808;4.402;2023-03-19T12:23:26;10.23;;;4.35;;
41875;SDS011;27555;50.808;4.402;2023-03-19T12:34:40;8.95;;;4.35;;
41875;SDS011;27555;50.808;4.402;2023-03-19T12:37:29;10.65;;;5.75;;
41875;SDS011;27555;50.808;4.402;2023-03-19T12:42:57;10.18;;;5.60;;
41875;SDS011;27555;50.808;4.402;2023-03-19T12:48:07;15.18;;;6.50;;
41875;SDS011;27555;50.808;4.402;2023-03-19T12:50:37;14.40;;;7.53;;
41875;SDS011;27555;50.808;4.402;2023-03-19T12:53:06;18.50;;;7.38;;
41875;SDS011;27555;50.808;4.402;2023-03-19T12:55:45;11.50;;;5.68;;
41875;SDS011;27555;50.808;4.402;2023-03-19T12:58:21;12.02;;;5.00;;
41875;SDS011;27555;50.808;4.402;2023-03-19T13:03:49;16.77;;;6.18;;
41875;SDS011;27555;50.808;4.402;2023-03-19T13:06:48;7.57;;;4.53;;
41875;SDS011;27555;50.808;4.402;2023-03-19T13:11:59;5.65;;;3.08;;
41875;SDS011;27555;50.808;4.402;2023-03-19T13:14:34;5.57;;;3.40;;
41875;SDS011;27555;50.808;4.402;2023-03-19T13:20:01;7.03;;;4.18;;
41875;SDS011;27555;50.808;4.402;2023-03-19T13:22:40;9.52;;;5.25;;
41875;SDS011;27555;50.808;4.402;2023-03-19T13:25:13;9.15;;;5.55;;
41875;SDS011;27555;50.808;4.402;2023-03-19T13:27:43;15.05;;;7.00;;
41875;SDS011;27555;50.808;4.402;2023-03-19T13:30:20;19.05;;;8.23;;
41875;SDS011;27555;50.808;4.402;2023-03-19T13:32:51;11.38;;;6.97;;
41875;SDS011;27555;50.808;4.402;2023-03-19T13:40:45;13.50;;;7.63;;
41875;SDS011;27555;50.808;4.402;2023-03-19T13:48:36;13.45;;;7.20;;
41875;SDS011;27555;50.808;4.402;2023-03-19T13:57:20;11.27;;;4.70;;
41875;SDS011;27555;50.808;4.402;2023-03-19T13:59:30;7.03;;;3.83;;
41875;SDS011;27555;50.808;4.402;2023-03-19T14:01:57;5.60;;;3.05;;
41875;SDS011;27555;50.808;4.402;2023-03-19T14:04:28;7.43;;;3.13;;
41875;SDS011;27555;50.808;4.402;2023-03-19T14:09:38;10.40;;;4.70;;
41875;SDS011;27555;50.808;4.402;2023-03-19T14:17:38;8.68;;;4.45;;
41875;SDS011;27555;50.808;4.402;2023-03-19T14:22:38;8.90;;;3.63;;
41875;SDS011;27555;50.808;4.402;2023-03-19T14:25:19;7.22;;;4.10;;
41875;SDS011;27555;50.808;4.402;2023-03-19T14:30:56;9.85;;;5.13;;
41875;SDS011;27555;50.808;4.402;2023-03-19T14:33:05;13.45;;;5.55;;
41875;SDS011;27555;50.808;4.402;2023-03-19T14:35:40;8.98;;;5.10;;
41875;SDS011;27555;50.808;4.402;2023-03-19T14:38:13;8.18;;;4.93;;
41875;SDS011;27555;50.808;4.402;2023-03-19T14:41:01;6.13;;;4.03;;
41875;SDS011;27555;50.808;4.402;2023-03-19T14:46:03;7.57;;;4.25;;
41875;SDS011;27555;50.808;4.402;2023-03-19T14:54:03;6.97;;;4.28;;
41875;SDS011;27555;50.808;4.402;2023-03-19T14:56:48;8.32;;;4.80;;
41875;SDS011;27555;50.808;4.402;2023-03-19T14:59:14;11.30;;;5.10;;
41875;SDS011;27555;50.808;4.402;2023-03-19T15:01:46;8.07;;;4.00;;
41875;SDS011;27555;50.808;4.402;2023-03-19T15:04:15;9.18;;;4.63;;
41875;SDS011;27555;50.808;4.402;2023-03-19T15:06:55;6.00;;;3.53;;
41875;SDS011;27555;50.808;4.402;2023-03-19T15:14:41;5.82;;;3.60;;
41875;SDS011;27555;50.808;4.402;2023-03-19T15:19:57;5.55;;;3.30;;
41875;SDS011;27555;50.808;4.402;2023-03-19T15:22:25;5.05;;;2.80;;
41875;SDS011;27555;50.808;4.402;2023-03-19T15:24:51;6.22;;;3.58;;
41875;SDS011;27555;50.808;4.402;2023-03-19T15:27:18;7.28;;;3.00;;
41875;SDS011;27555;50.808;4.402;2023-03-19T15:29:46;5.47;;;2.60;;
41875;SDS011;27555;50.808;4.402;2023-03-19T15:32:12;6.70;;;2.53;;
41875;SDS011;27555;50.808;4.402;2023-03-19T15:34:37;5.28;;;2.13;;
41875;SDS011;27555;50.808;4.402;2023-03-19T15:37:07;3.60;;;1.77;;
41875;SDS011;27555;50.808;4.402;2023-03-19T15:39:36;6.78;;;2.95;;
41875;SDS011;27555;50.808;4.402;2023-03-19T15:42:08;5.03;;;2.50;;
41875;SDS011;27555;50.808;4.402;2023-03-19T15:44:36;4.78;;;2.38;;
41875;SDS011;27555;50.808;4.402;2023-03-19T15:47:17;6.30;;;2.42;;
41875;SDS011;27555;50.808;4.402;2023-03-19T15:49:50;9.00;;;2.78;;
41875;SDS011;27555;50.808;4.402;2023-03-19T15:52:23;7.32;;;2.35;;
41875;SDS011;27555;50.808;4.402;2023-03-19T15:54:49;11.52;;;2.70;;
41875;SDS011;27555;50.808;4.402;2023-03-19T15:57:18;4.95;;;2.90;;
41875;SDS011;27555;50.808;4.402;2023-03-19T15:59:43;9.05;;;3.42;;
41875;SDS011;27555;50.808;4.402;2023-03-19T16:02:13;6.03;;;3.10;;
41875;SDS011;27555;50.808;4.402;2023-03-19T16:04:50;7.28;;;2.97;;
41875;SDS011;27555;50.808;4.402;2023-03-19T16:07:22;6.38;;;2.72;;
41875;SDS011;27555;50.808;4.402;2023-03-19T16:09:56;6.60;;;3.08;;
41875;SDS011;27555;50.808;4.402;2023-03-19T16:12:35;7.38;;;3.83;;
41875;SDS011;27555;50.808;4.402;2023-03-19T16:18:07;8.10;;;4.07;;
41875;SDS011;27555;50.808;4.402;2023-03-19T16:20:40;8.52;;;3.15;;
41875;SDS011;27555;50.808;4.402;2023-03-19T16:23:27;8.07;;;2.95;;
41875;SDS011;27555;50.808;4.402;2023-03-19T16:25:56;5.68;;;3.40;;
41875;SDS011;27555;50.808;4.402;2023-03-19T16:28:27;7.20;;;3.50;;
41875;SDS011;27555;50.808;4.402;2023-03-19T16:30:52;12.35;;;4.30;;
41875;SDS011;27555;50.808;4.402;2023-03-19T16:33:18;11.48;;;3.90;;
41875;SDS011;27555;50.808;4.402;2023-03-19T16:35:44;9.63;;;4.55;;
41875;SDS011;27555;50.808;4.402;2023-03-19T16:38:14;8.02;;;4.40;;
41875;SDS011;27555;50.808;4.402;2023-03-19T16:40:47;9.57;;;3.97;;
41875;SDS011;27555;50.808;4.402;2023-03-19T16:43:21;9.35;;;4.60;;
41875;SDS011;27555;50.808;4.402;2023-03-19T16:46:06;10.05;;;4.32;;
41875;SDS011;27555;50.808;4.402;2023-03-19T16:48:36;13.43;;;4.28;;
41875;SDS011;27555;50.808;4.402;2023-03-19T16:51:02;9.05;;;4.05;;
41875;SDS011;27555;50.808;4.402;2023-03-19T16:53:29;8.55;;;4.43;;
41875;SDS011;27555;50.808;4.402;2023-03-19T16:55:56;12.07;;;5.97;;
41875;SDS011;27555;50.808;4.402;2023-03-19T16:58:32;14.52;;;4.20;;
41875;SDS011;27555;50.808;4.402;2023-03-19T17:01:22;20.50;;;6.00;;
41875;SDS011;27555;50.808;4.402;2023-03-19T17:03:49;18.95;;;4.78;;
41875;SDS011;27555;50.808;4.402;2023-03-19T17:06:16;14.48;;;4.32;;
41875;SDS011;27555;50.808;4.402;2023-03-19T17:08:42;6.72;;;2.92;;
41875;SDS011;27555;50.808;4.402;2023-03-19T17:11:11;9.55;;;3.63;;
41875;SDS011;27555;50.808;4.402;2023-03-19T17:13:49;6.57;;;3.25;;